Battle Ground, Washington
Current Conditions -  °F | °C
As of 7:53 AM on Saturday 25 Oct 2014 (Local Time) from KVUO Reporting Station
Moderate Rain Moderate Rain  
Wind Chill: 52°   Ceiling: 7500
Heat Index: 52°   Visibility: 6mi
Dew Point: 49°   Wind: 15mph
Humidity: 89%   Direction: 90°E
Pressure: 29.53"   Gusts: 23mph
Location:  45.78°N, 122.53°W
Report Text: KVUO 251453Z AUTO 09013G20KT 6SM RA BR FEW036 SCT055 OVC075 11/09 A2953 RMK AO2 PRESFR SLP001 P0006 60006 T01110094 50016
Loading
Personal Weather Stations






























Interactive Weather Map
Tropical Storm Tracking
New forecast layout! Learn more

10-Day Weather Forecast

Advertisements
Track Severe Weather on mobile